Time;durP1;ratioP1;P1;durP2;ratioP2;P2;SDS_P1;SDS_P2;PMS_P1;PMS_P2;Temp;Humidity;BMP_temperature;BMP_pressure;BME280_temperature;BME280_humidity;BME280_pressure;Samples;Min_cycle;Max_cycle;Signal;HPM_P1;HPM_P2
2021/07/21 00:00:42;;;;;;;15.77;13.52;;;;;;;;;;5109966;28;20008;-75
2021/07/21 00:03:08;;;;;;;21.92;13.20;;;;;;;;;;5101740;28;20028;-77
2021/07/21 00:05:36;;;;;;;23.17;13.25;;;;;;;;;;5104569;28;20028;-87
2021/07/21 00:08:04;;;;;;;19.65;13.95;;;;;;;;;;5093011;28;20024;-85
2021/07/21 00:10:31;;;;;;;16.95;13.57;;;;;;;;;;5088885;28;20039;-80
2021/07/21 00:16:33;;;;;;;18.35;13.07;;;;;;;;;;5107255;28;20055;-74
2021/07/21 00:18:47;;;;;;;21.13;13.45;;;;;;;;;;5089061;28;20109;-71
2021/07/21 00:21:14;;;;;;;18.27;13.55;;;;;;;;;;5107190;28;20044;-70
2021/07/21 00:23:41;;;;;;;16.92;13.05;;;;;;;;;;5111486;28;20024;-74
2021/07/21 00:26:07;;;;;;;16.75;13.32;;;;;;;;;;5111140;28;20531;-82
2021/07/21 00:28:41;;;;;;;19.73;13.63;;;;;;;;;;5106482;28;20051;-87
2021/07/21 00:31:07;;;;;;;16.55;13.35;;;;;;;;;;5107089;28;20027;-72
2021/07/21 00:34:12;;;;;;;19.25;13.55;;;;;;;;;;5109135;28;20016;-74
2021/07/21 00:36:38;;;;;;;19.85;13.13;;;;;;;;;;5078217;28;20039;-72
2021/07/21 00:39:13;;;;;;;16.33;12.80;;;;;;;;;;5092030;28;20021;-73
2021/07/21 00:41:40;;;;;;;18.83;13.35;;;;;;;;;;5069463;28;20033;-70
2021/07/21 00:44:06;;;;;;;18.30;13.20;;;;;;;;;;5112947;28;20051;-70
2021/07/21 00:46:33;;;;;;;16.45;13.20;;;;;;;;;;5094773;28;20026;-71
2021/07/21 00:48:59;;;;;;;18.90;13.48;;;;;;;;;;5108612;28;20016;-70
2021/07/21 00:51:25;;;;;;;19.15;13.38;;;;;;;;;;5110672;28;20493;-71
2021/07/21 00:53:51;;;;;;;22.25;13.60;;;;;;;;;;5113661;28;20008;-71
2021/07/21 00:56:18;;;;;;;20.48;14.25;;;;;;;;;;5097043;28;20036;-70
2021/07/21 00:58:44;;;;;;;18.15;12.90;;;;;;;;;;5110477;28;20008;-71
2021/07/21 01:01:10;;;;;;;21.60;13.57;;;;;;;;;;5105487;28;20054;-75
2021/07/21 01:03:36;;;;;;;15.88;12.63;;;;;;;;;;5091333;28;20040;-72
2021/07/21 01:06:04;;;;;;;18.60;14.13;;;;;;;;;;5108210;28;20025;-70
2021/07/21 01:08:30;;;;;;;19.50;13.18;;;;;;;;;;5093172;28;20047;-70
2021/07/21 01:11:02;;;;;;;19.67;13.35;;;;;;;;;;5096102;28;20025;-70
2021/07/21 01:13:30;;;;;;;16.58;13.52;;;;;;;;;;5088672;28;20031;-70
2021/07/21 01:16:06;;;;;;;16.33;13.65;;;;;;;;;;5109367;28;20061;-70
2021/07/21 01:18:36;;;;;;;18.65;13.32;;;;;;;;;;5109491;28;20024;-70
2021/07/21 01:21:26;;;;;;;19.77;14.18;;;;;;;;;;5104268;28;20028;-70
2021/07/21 01:24:10;;;;;;;18.27;13.80;;;;;;;;;;5110602;28;20016;-70
2021/07/21 01:26:42;;;;;;;18.23;13.80;;;;;;;;;;5109849;28;20139;-70
2021/07/21 01:29:09;;;;;;;20.80;14.47;;;;;;;;;;5095091;28;20036;-70
2021/07/21 01:31:38;;;;;;;19.20;13.75;;;;;;;;;;5105761;28;20032;-70
2021/07/21 01:34:07;;;;;;;19.35;13.85;;;;;;;;;;5097576;28;20012;-70
2021/07/21 01:36:34;;;;;;;19.73;13.93;;;;;;;;;;5096900;28;20034;-70
2021/07/21 01:39:04;;;;;;;18.48;12.95;;;;;;;;;;5102115;28;20381;-70
2021/07/21 01:41:34;;;;;;;22.42;14.65;;;;;;;;;;5097480;28;20450;-70
2021/07/21 01:44:20;;;;;;;18.77;13.88;;;;;;;;;;5075464;28;20021;-70
2021/07/21 01:46:53;;;;;;;17.92;13.75;;;;;;;;;;5093306;28;20036;-70
2021/07/21 01:49:20;;;;;;;19.93;13.90;;;;;;;;;;5106714;28;20020;-70
2021/07/21 01:51:47;;;;;;;19.33;13.65;;;;;;;;;;5107678;28;20032;-69
2021/07/21 01:54:14;;;;;;;17.67;13.70;;;;;;;;;;5097400;28;20052;-70
2021/07/21 01:57:07;;;;;;;;;;;;;;;;;;;;;
2021/07/21 01:59:34;;;;;;;19.02;14.50;;;;;;;;;;5098773;28;20068;-70
2021/07/21 02:02:01;;;;;;;20.50;14.43;;;;;;;;;;5112319;28;20043;-69
2021/07/21 02:04:29;;;;;;;18.88;14.10;;;;;;;;;;5105897;28;20028;-71
2021/07/21 02:06:55;;;;;;;17.95;13.63;;;;;;;;;;5108758;28;20020;-70
2021/07/21 02:09:21;;;;;;;23.45;14.25;;;;;;;;;;5112800;28;20027;-70
2021/07/21 02:11:48;;;;;;;17.90;13.68;;;;;;;;;;5095155;28;20012;-70
2021/07/21 02:14:14;;;;;;;23.52;13.65;;;;;;;;;;5096998;28;20016;-70
2021/07/21 02:16:41;;;;;;;18.25;14.40;;;;;;;;;;5107975;28;20020;-70
2021/07/21 02:19:08;;;;;;;17.50;13.52;;;;;;;;;;5094813;28;20052;-70
2021/07/21 02:21:37;;;;;;;17.85;13.45;;;;;;;;;;5099284;28;20024;-70
2021/07/21 02:24:04;;;;;;;18.33;13.55;;;;;;;;;;5111634;28;20024;-70
2021/07/21 02:26:30;;;;;;;20.30;13.25;;;;;;;;;;5104976;28;20036;-71
2021/07/21 02:28:56;;;;;;;16.23;13.63;;;;;;;;;;5111907;28;20028;-70
2021/07/21 02:31:27;;;;;;;18.55;13.50;;;;;;;;;;5110054;28;20089;-70
2021/07/21 02:33:57;;;;;;;17.42;12.98;;;;;;;;;;5105449;28;20029;-70
2021/07/21 02:36:24;;;;;;;22.83;13.30;;;;;;;;;;5105183;28;20036;-70
2021/07/21 02:38:51;;;;;;;16.95;13.00;;;;;;;;;;5111908;28;20031;-70
2021/07/21 02:41:18;;;;;;;21.10;14.07;;;;;;;;;;5107021;28;20016;-70
2021/07/21 02:43:44;;;;;;;21.85;13.77;;;;;;;;;;5105428;28;20054;-70
2021/07/21 02:46:10;;;;;;;20.70;13.98;;;;;;;;;;5109321;28;20052;-70
2021/07/21 02:48:36;;;;;;;20.85;13.88;;;;;;;;;;5095244;28;20064;-70
2021/07/21 02:51:08;;;;;;;20.73;13.25;;;;;;;;;;5111830;28;20044;-70
2021/07/21 02:53:34;;;;;;;19.85;14.30;;;;;;;;;;5102362;28;20082;-71
2021/07/21 02:56:06;;;;;;;21.48;13.00;;;;;;;;;;5112731;28;20029;-69
2021/07/21 02:58:41;;;;;;;18.60;13.63;;;;;;;;;;5111946;28;20023;-70
2021/07/21 03:01:08;;;;;;;20.13;13.30;;;;;;;;;;5114829;28;20178;-70
2021/07/21 03:03:36;;;;;;;18.10;12.20;;;;;;;;;;5108944;28;20063;-70
2021/07/21 03:06:07;;;;;;;15.85;12.25;;;;;;;;;;5114322;28;20088;-70
2021/07/21 03:08:33;;;;;;;17.20;13.02;;;;;;;;;;5102992;28;20013;-70
2021/07/21 03:11:00;;;;;;;17.05;12.60;;;;;;;;;;5103384;28;20053;-69
2021/07/21 03:13:45;;;;;;;17.02;12.40;;;;;;;;;;5110876;28;20032;-70
2021/07/21 03:16:11;;;;;;;16.75;12.57;;;;;;;;;;5097388;28;20047;-70
2021/07/21 03:18:39;;;;;;;16.92;13.35;;;;;;;;;;5096214;28;20044;-71
2021/07/21 03:21:06;;;;;;;18.60;12.73;;;;;;;;;;5108426;28;20024;-70
2021/07/21 03:23:32;;;;;;;20.27;13.18;;;;;;;;;;5112721;28;19997;-70
2021/07/21 03:26:00;;;;;;;18.38;12.80;;;;;;;;;;5113497;28;20547;-70
2021/07/21 03:28:26;;;;;;;18.55;12.93;;;;;;;;;;5095282;28;20036;-70
2021/07/21 03:30:53;;;;;;;18.15;12.15;;;;;;;;;;5099073;28;20048;-69
2021/07/21 03:33:20;;;;;;;21.17;13.68;;;;;;;;;;5097212;28;20028;-70
2021/07/21 03:35:47;;;;;;;16.88;12.63;;;;;;;;;;5100338;28;20044;-70
2021/07/21 03:38:16;;;;;;;16.55;12.10;;;;;;;;;;5100020;28;20025;-70
2021/07/21 03:40:43;;;;;;;20.58;12.43;;;;;;;;;;5113372;28;20010;-70
2021/07/21 03:43:29;;;;;;;19.15;12.27;;;;;;;;;;5107193;28;20012;-70
2021/07/21 03:46:15;;;;;;;17.50;11.98;;;;;;;;;;5113383;28;20367;-70
2021/07/21 03:48:41;;;;;;;19.27;12.70;;;;;;;;;;5115272;28;20023;-70
2021/07/21 03:51:07;;;;;;;17.70;11.75;;;;;;;;;;5108691;28;20071;-69
2021/07/21 03:53:34;;;;;;;19.83;12.95;;;;;;;;;;5115386;28;20004;-70
2021/07/21 03:56:01;;;;;;;19.13;12.23;;;;;;;;;;5117144;28;20084;-70
2021/07/21 03:58:27;;;;;;;21.27;12.85;;;;;;;;;;5101780;28;20489;-70
2021/07/21 04:00:58;;;;;;;22.30;12.45;;;;;;;;;;5112882;28;20051;-69
2021/07/21 04:03:24;;;;;;;18.60;12.18;;;;;;;;;;5101069;28;20030;-70
2021/07/21 04:05:53;;;;;;;18.67;12.88;;;;;;;;;;5111863;28;20018;-70
2021/07/21 04:08:19;;;;;;;17.77;12.65;;;;;;;;;;5106590;28;20020;-69
2021/07/21 04:10:46;;;;;;;19.80;13.10;;;;;;;;;;5112904;28;20032;-70
2021/07/21 04:13:12;;;;;;;16.63;12.80;;;;;;;;;;5115380;28;20024;-70
2021/07/21 04:15:38;;;;;;;18.48;13.30;;;;;;;;;;5103424;28;20028;-69
2021/07/21 04:18:04;;;;;;;15.38;11.82;;;;;;;;;;5101132;28;20050;-71
2021/07/21 04:20:33;;;;;;;19.10;12.48;;;;;;;;;;5114960;28;20008;-70
2021/07/21 04:23:00;;;;;;;19.60;12.43;;;;;;;;;;5092388;28;20055;-66
2021/07/21 04:25:27;;;;;;;16.73;12.40;;;;;;;;;;5089477;28;20485;-76
2021/07/21 04:28:09;;;;;;;18.23;11.85;;;;;;;;;;5093357;28;20083;-77
2021/07/21 04:30:36;;;;;;;18.48;12.77;;;;;;;;;;5089452;28;20032;-75
2021/07/21 04:33:02;;;;;;;16.02;12.75;;;;;;;;;;5091070;28;20088;-75
2021/07/21 04:35:33;;;;;;;19.73;12.75;;;;;;;;;;5095405;28;20040;-73
2021/07/21 04:38:13;;;;;;;16.80;11.68;;;;;;;;;;5096045;28;20021;-76
2021/07/21 04:40:44;;;;;;;21.27;12.32;;;;;;;;;;5091725;28;20024;-74
2021/07/21 04:43:13;;;;;;;20.05;13.07;;;;;;;;;;5096134;28;21283;-79
2021/07/21 04:45:50;;;;;;;18.33;12.82;;;;;;;;;;5133436;23;20207;-77
2021/07/21 04:48:17;;;;;;;32.08;13.35;;;;;;;;;;5063081;28;20040;-69
2021/07/21 04:50:44;;;;;;;46.67;14.70;;;;;;;;;;5058500;28;20494;-71
2021/07/21 04:53:11;;;;;;;20.05;12.90;;;;;;;;;;5056508;28;20021;-79
2021/07/21 04:55:38;;;;;;;19.67;12.40;;;;;;;;;;5058620;28;20041;-79
2021/07/21 04:58:04;;;;;;;18.88;12.18;;;;;;;;;;5054066;28;20024;-77
2021/07/21 05:00:30;;;;;;;16.33;11.82;;;;;;;;;;5051637;28;20474;-76
2021/07/21 05:02:57;;;;;;;20.13;12.02;;;;;;;;;;5035787;28;20077;-70
2021/07/21 05:05:24;;;;;;;18.08;12.40;;;;;;;;;;5052357;28;20077;-80
2021/07/21 05:07:50;;;;;;;22.27;13.32;;;;;;;;;;5052114;28;20025;-74
2021/07/21 05:10:16;;;;;;;18.98;12.40;;;;;;;;;;5051393;28;20447;-83
2021/07/21 05:12:44;;;;;;;18.92;14.10;;;;;;;;;;5049623;28;20025;-77
2021/07/21 05:15:14;;;;;;;18.80;12.63;;;;;;;;;;5038450;28;20029;-84
2021/07/21 05:17:40;;;;;;;21.75;12.40;;;;;;;;;;5053154;28;20145;-74
2021/07/21 05:20:07;;;;;;;19.33;12.18;;;;;;;;;;5064220;28;20029;-87
2021/07/21 05:22:33;;;;;;;26.50;12.77;;;;;;;;;;5046165;28;20108;-74
2021/07/21 05:24:59;;;;;;;15.93;12.13;;;;;;;;;;5046304;28;20033;-71
2021/07/21 05:27:25;;;;;;;15.90;12.20;;;;;;;;;;5048231;28;20039;-85
2021/07/21 05:29:51;;;;;;;14.82;11.88;;;;;;;;;;5069394;28;20067;-73
2021/07/21 05:32:17;;;;;;;15.43;11.70;;;;;;;;;;5065593;28;20033;-77
2021/07/21 05:34:44;;;;;;;17.50;11.98;;;;;;;;;;5066448;28;20098;-72
2021/07/21 05:39:55;;;;;;;17.20;11.93;;;;;;;;;;5070971;28;20031;-71
2021/07/21 05:42:22;;;;;;;16.10;11.75;;;;;;;;;;5069285;28;20039;-77
2021/07/21 05:44:48;;;;;;;17.52;12.07;;;;;;;;;;5070883;28;20032;-76
2021/07/21 05:47:14;;;;;;;16.27;11.68;;;;;;;;;;5066324;28;20176;-81
2021/07/21 05:49:40;;;;;;;17.02;11.05;;;;;;;;;;5051367;28;20070;-78
2021/07/21 05:52:07;;;;;;;13.90;10.32;;;;;;;;;;5064949;28;20077;-77
2021/07/21 05:54:37;;;;;;;16.17;10.95;;;;;;;;;;5072454;28;20039;-80
2021/07/21 05:57:06;;;;;;;12.63;10.38;;;;;;;;;;5067077;28;20120;-76
2021/07/21 05:59:32;;;;;;;16.13;10.27;;;;;;;;;;5068388;28;20063;-77
2021/07/21 06:01:58;;;;;;;15.65;10.80;;;;;;;;;;5055170;28;20024;-78
2021/07/21 06:04:24;;;;;;;17.95;11.20;;;;;;;;;;5071456;28;20111;-72
2021/07/21 06:06:51;;;;;;;15.10;10.98;;;;;;;;;;5066981;28;20036;-79
2021/07/21 06:09:17;;;;;;;16.15;10.52;;;;;;;;;;5069253;28;20017;-73
2021/07/21 06:11:43;;;;;;;16.27;11.32;;;;;;;;;;5048121;28;20474;-70
2021/07/21 06:14:10;;;;;;;18.35;10.98;;;;;;;;;;5065711;28;20021;-76
2021/07/21 06:16:37;;;;;;;14.05;10.70;;;;;;;;;;5071652;28;20489;-82
2021/07/21 06:19:03;;;;;;;16.38;10.77;;;;;;;;;;5071649;28;20028;-81
2021/07/21 06:21:29;;;;;;;14.52;10.55;;;;;;;;;;5073148;28;20028;-75
2021/07/21 06:23:55;;;;;;;13.80;10.18;;;;;;;;;;5070566;28;20021;-75
2021/07/21 06:26:21;;;;;;;20.60;10.98;;;;;;;;;;5067677;28;20059;-81
2021/07/21 06:28:49;;;;;;;14.15;10.40;;;;;;;;;;5066570;28;20036;-80
2021/07/21 06:31:15;;;;;;;13.65;10.38;;;;;;;;;;5074751;28;20021;-81
2021/07/21 06:33:41;;;;;;;16.00;10.73;;;;;;;;;;5067050;28;20052;-80
2021/07/21 06:36:07;;;;;;;16.33;9.88;;;;;;;;;;5072257;28;20036;-80
2021/07/21 06:38:33;;;;;;;14.35;10.52;;;;;;;;;;5053049;28;20035;-89
2021/07/21 06:41:00;;;;;;;13.40;9.77;;;;;;;;;;5054383;28;20626;-82
2021/07/21 06:43:26;;;;;;;14.43;9.88;;;;;;;;;;5071619;28;20381;-82
2021/07/21 06:45:52;;;;;;;15.52;10.45;;;;;;;;;;5068861;28;20040;-83
2021/07/21 06:48:18;;;;;;;12.38;9.75;;;;;;;;;;5052357;28;20489;-82
2021/07/21 06:50:46;;;;;;;17.33;10.05;;;;;;;;;;5070708;28;20099;-85
2021/07/21 06:53:12;;;;;;;11.50;9.32;;;;;;;;;;5069660;28;20029;-83
2021/07/21 06:55:38;;;;;;;13.25;9.63;;;;;;;;;;5070018;28;20032;-78
2021/07/21 06:58:05;;;;;;;15.13;9.75;;;;;;;;;;5069131;28;20081;-84
2021/07/21 07:00:31;;;;;;;11.45;9.52;;;;;;;;;;5070213;28;20032;-82
2021/07/21 07:02:58;;;;;;;14.57;9.45;;;;;;;;;;5071419;28;20021;-87
2021/07/21 07:05:24;;;;;;;15.82;9.30;;;;;;;;;;5050548;28;20028;-82
2021/07/21 07:08:00;;;;;;;14.27;9.07;;;;;;;;;;5070694;28;20052;-79
2021/07/21 07:10:26;;;;;;;13.30;9.15;;;;;;;;;;5049516;28;20036;-92
2021/07/21 07:12:52;;;;;;;15.27;9.35;;;;;;;;;;5073377;28;20028;-87
2021/07/21 07:15:18;;;;;;;11.55;9.35;;;;;;;;;;5072113;28;20711;-79
2021/07/21 07:17:46;;;;;;;15.18;9.23;;;;;;;;;;5069763;28;20056;-91
2021/07/21 07:20:12;;;;;;;12.00;9.20;;;;;;;;;;5071457;28;20036;-80
2021/07/21 07:22:38;;;;;;;14.10;8.98;;;;;;;;;;5069656;28;20135;-77
2021/07/21 07:25:05;;;;;;;12.40;9.07;;;;;;;;;;5071136;28;20024;-83
2021/07/21 07:27:31;;;;;;;14.65;9.20;;;;;;;;;;5070778;28;20078;-79
2021/07/21 07:29:57;;;;;;;15.60;8.75;;;;;;;;;;5070289;28;20025;-82
2021/07/21 07:32:23;;;;;;;11.27;8.70;;;;;;;;;;5053157;28;20032;-78
2021/07/21 07:34:50;;;;;;;13.85;8.57;;;;;;;;;;5049478;28;20021;-87
2021/07/21 07:37:16;;;;;;;12.68;8.95;;;;;;;;;;5068396;28;20041;-85
2021/07/21 07:39:42;;;;;;;13.02;8.80;;;;;;;;;;5062766;28;20475;-84
2021/07/21 07:42:08;;;;;;;11.95;8.68;;;;;;;;;;5051959;28;20028;-84
2021/07/21 07:44:34;;;;;;;11.60;8.68;;;;;;;;;;5069636;28;20012;-86
2021/07/21 07:47:01;;;;;;;13.10;9.10;;;;;;;;;;5065477;28;20391;-76
2021/07/21 07:49:29;;;;;;;14.43;8.63;;;;;;;;;;5067261;28;20031;-77
2021/07/21 07:51:55;;;;;;;13.73;8.88;;;;;;;;;;5070437;28;20035;-83
2021/07/21 07:54:21;;;;;;;14.07;8.80;;;;;;;;;;5049359;28;20074;-75
2021/07/21 07:56:48;;;;;;;11.90;8.25;;;;;;;;;;5050660;28;20040;-82
2021/07/21 07:59:14;;;;;;;11.85;8.75;;;;;;;;;;5065019;28;20052;-86
2021/07/21 08:01:43;;;;;;;13.73;8.88;;;;;;;;;;5067587;28;20029;-72
2021/07/21 08:04:09;;;;;;;12.95;8.85;;;;;;;;;;5045161;28;20115;-79
2021/07/21 08:06:35;;;;;;;12.63;8.65;;;;;;;;;;5047602;28;20087;-78
2021/07/21 08:09:04;;;;;;;11.57;8.75;;;;;;;;;;5048264;28;20433;-84
2021/07/21 08:11:30;;;;;;;12.02;7.97;;;;;;;;;;5069877;28;20118;-90
2021/07/21 08:13:56;;;;;;;10.40;8.43;;;;;;;;;;5069041;28;20470;-85
2021/07/21 08:16:22;;;;;;;11.32;8.27;;;;;;;;;;5044213;28;20059;-85
2021/07/21 08:18:48;;;;;;;11.13;8.13;;;;;;;;;;5053763;28;20389;-79
2021/07/21 08:21:14;;;;;;;11.48;8.68;;;;;;;;;;5069791;28;20029;-80
2021/07/21 08:23:40;;;;;;;11.02;7.80;;;;;;;;;;5069922;28;20027;-82
2021/07/21 08:26:06;;;;;;;13.02;8.48;;;;;;;;;;5064071;28;20033;-81
2021/07/21 08:28:35;;;;;;;14.00;8.45;;;;;;;;;;5068808;28;20016;-80
2021/07/21 08:31:01;;;;;;;13.27;8.73;;;;;;;;;;5049751;28;20482;-80
2021/07/21 08:33:27;;;;;;;16.67;8.25;;;;;;;;;;5053245;28;20406;-83
2021/07/21 08:35:53;;;;;;;10.15;8.35;;;;;;;;;;5063961;28;20028;-81
2021/07/21 08:38:19;;;;;;;10.82;8.15;;;;;;;;;;5070237;28;20021;-80
2021/07/21 08:40:47;;;;;;;14.15;8.25;;;;;;;;;;5068052;28;20435;-83
2021/07/21 08:43:13;;;;;;;10.98;8.50;;;;;;;;;;5069009;28;20142;-82
2021/07/21 08:45:40;;;;;;;12.98;8.25;;;;;;;;;;5063339;28;20072;-80
2021/07/21 08:48:06;;;;;;;14.20;8.75;;;;;;;;;;5051479;28;20024;-84
2021/07/21 08:50:32;;;;;;;10.65;8.23;;;;;;;;;;5051573;28;20039;-82
2021/07/21 08:53:00;;;;;;;11.65;8.65;;;;;;;;;;5057976;28;20027;-81
2021/07/21 08:55:26;;;;;;;10.85;7.82;;;;;;;;;;5069229;28;20488;-84
2021/07/21 08:57:52;;;;;;;12.95;8.20;;;;;;;;;;5050038;28;20028;-82
2021/07/21 09:00:19;;;;;;;11.60;8.40;;;;;;;;;;5066496;28;20037;-84
2021/07/21 09:02:46;;;;;;;11.98;7.90;;;;;;;;;;5065532;28;20028;-80
2021/07/21 09:05:13;;;;;;;13.52;7.97;;;;;;;;;;5061840;28;20025;-80
2021/07/21 09:07:40;;;;;;;14.02;8.02;;;;;;;;;;5066141;28;20082;-87
2021/07/21 09:10:07;;;;;;;11.13;7.95;;;;;;;;;;5063754;28;20017;-76
2021/07/21 09:12:33;;;;;;;12.43;8.10;;;;;;;;;;5066760;28;20020;-81
2021/07/21 09:15:00;;;;;;;10.77;8.40;;;;;;;;;;5046849;28;20429;-81
2021/07/21 09:17:27;;;;;;;11.55;8.10;;;;;;;;;;5071949;28;20510;-85
2021/07/21 09:19:56;;;;;;;12.48;9.02;;;;;;;;;;5054573;28;20021;-74
2021/07/21 09:22:23;;;;;;;11.88;8.07;;;;;;;;;;5071199;28;20040;-77
2021/07/21 09:25:07;;;;;;;11.27;8.68;;;;;;;;;;5069558;28;20099;-81
2021/07/21 09:27:33;;;;;;;11.82;8.43;;;;;;;;;;5067434;28;20481;-87
2021/07/21 09:30:00;;;;;;;12.82;8.27;;;;;;;;;;5068888;28;20658;-82
2021/07/21 09:32:26;;;;;;;13.68;8.15;;;;;;;;;;5067961;28;20029;-86
2021/07/21 09:34:53;;;;;;;13.52;8.27;;;;;;;;;;5052958;28;20045;-84
2021/07/21 09:37:20;;;;;;;14.38;8.80;;;;;;;;;;5052246;28;20044;-76
2021/07/21 09:39:50;;;;;;;11.55;8.57;;;;;;;;;;5071467;28;20029;-80
2021/07/21 09:42:16;;;;;;;10.90;8.13;;;;;;;;;;5074299;28;20044;-83
2021/07/21 09:44:44;;;;;;;12.25;8.50;;;;;;;;;;5052075;28;20058;-79
2021/07/21 09:47:13;;;;;;;11.95;8.57;;;;;;;;;;5073324;28;20059;-80
2021/07/21 09:49:39;;;;;;;13.77;8.75;;;;;;;;;;5071211;28;20170;-78
2021/07/21 09:52:18;;;;;;;13.27;9.32;;;;;;;;;;5069742;28;20033;-79
2021/07/21 09:55:03;;;;;;;14.10;9.38;;;;;;;;;;5068007;28;20024;-73
2021/07/21 09:57:29;;;;;;;9.82;8.25;;;;;;;;;;5045548;28;20454;-92
2021/07/21 09:59:57;;;;;;;15.73;9.15;;;;;;;;;;5071441;28;20012;-77
2021/07/21 10:02:27;;;;;;;13.25;9.35;;;;;;;;;;5070025;28;20032;-71
2021/07/21 10:04:53;;;;;;;11.85;8.98;;;;;;;;;;5068273;28;20032;-78
2021/07/21 10:07:53;;;;;;;16.08;9.02;;;;;;;;;;5070537;28;20051;-74
2021/07/21 10:10:20;;;;;;;11.43;8.40;;;;;;;;;;5064097;28;20052;-70
2021/07/21 10:13:08;;;;;;;11.60;8.63;;;;;;;;;;5070356;28;20021;-75
2021/07/21 10:15:42;;;;;;;12.82;8.45;;;;;;;;;;5065453;28;20097;-80
2021/07/21 10:18:16;;;;;;;13.73;9.25;;;;;;;;;;5069506;28;20047;-77
2021/07/21 10:20:45;;;;;;;13.25;9.30;;;;;;;;;;5071592;28;20039;-77
2021/07/21 10:23:14;;;;;;;13.50;9.10;;;;;;;;;;5064451;28;20397;-74
2021/07/21 10:25:40;;;;;;;12.88;9.23;;;;;;;;;;5068819;28;20415;-77
2021/07/21 10:28:07;;;;;;;11.77;9.13;;;;;;;;;;5068781;28;20028;-76
2021/07/21 10:30:34;;;;;;;11.43;8.70;;;;;;;;;;5071955;28;20060;-77
2021/07/21 10:33:00;;;;;;;16.90;8.85;;;;;;;;;;5072800;28;20023;-71
2021/07/21 10:35:28;;;;;;;14.63;9.05;;;;;;;;;;5065598;28;20036;-76
2021/07/21 10:37:54;;;;;;;17.52;8.88;;;;;;;;;;5072637;28;20174;-81
2021/07/21 10:40:21;;;;;;;15.25;8.90;;;;;;;;;;5068407;28;20035;-77
2021/07/21 10:42:50;;;;;;;12.25;8.95;;;;;;;;;;5065899;28;20025;-78
2021/07/21 10:45:17;;;;;;;10.65;8.60;;;;;;;;;;5068579;28;20035;-84
2021/07/21 10:48:22;;;;;;;14.07;9.00;;;;;;;;;;5070301;28;20120;-85
2021/07/21 10:53:53;;;;;;;12.15;8.07;;;;;;;;;;5069675;28;20043;-72
2021/07/21 10:59:13;;;;;;;16.13;8.10;;;;;;;;;;5069525;28;20067;-79
2021/07/21 11:01:44;;;;;;;12.30;8.43;;;;;;;;;;5070373;28;20035;-76
2021/07/21 11:04:10;;;;;;;11.07;8.15;;;;;;;;;;5073231;28;20021;-78
2021/07/21 11:07:02;;;;;;;12.32;8.50;;;;;;;;;;5069632;28;20032;-81
2021/07/21 11:09:32;;;;;;;9.75;7.90;;;;;;;;;;5065521;28;20088;-81
2021/07/21 11:11:59;;;;;;;11.80;7.80;;;;;;;;;;5071357;28;20222;-77
2021/07/21 11:14:26;;;;;;;9.68;8.65;;;;;;;;;;5067477;28;20035;-82
2021/07/21 11:16:54;;;;;;;11.05;8.70;;;;;;;;;;5070398;28;20041;-80
2021/07/21 11:19:29;;;;;;;9.90;8.40;;;;;;;;;;5068378;28;20024;-73
2021/07/21 11:21:56;;;;;;;12.20;8.63;;;;;;;;;;5066223;28;20541;-68
2021/07/21 11:24:22;;;;;;;13.25;8.73;;;;;;;;;;5068499;28;20031;-80
2021/07/21 11:26:52;;;;;;;13.63;8.68;;;;;;;;;;5063340;28;20028;-83
2021/07/21 11:29:24;;;;;;;12.95;8.65;;;;;;;;;;5068584;28;20082;-77
2021/07/21 11:31:50;;;;;;;12.52;9.38;;;;;;;;;;5070865;28;20025;-81
2021/07/21 11:34:17;;;;;;;11.07;8.32;;;;;;;;;;5070380;28;20074;-82
2021/07/21 11:36:46;;;;;;;14.52;9.63;;;;;;;;;;5066174;28;20086;-76
2021/07/21 11:39:31;;;;;;;15.82;9.48;;;;;;;;;;5064896;28;20486;-80
2021/07/21 11:41:58;;;;;;;14.82;9.35;;;;;;;;;;5063618;28;20098;-71
2021/07/21 11:44:27;;;;;;;10.73;8.45;;;;;;;;;;5064150;28;20502;-82
2021/07/21 11:46:54;;;;;;;10.75;8.88;;;;;;;;;;5069410;28;20044;-82
2021/07/21 11:49:24;;;;;;;12.50;8.95;;;;;;;;;;5070817;28;20456;-82
2021/07/21 11:51:51;;;;;;;13.90;9.45;;;;;;;;;;5069096;28;20116;-83
2021/07/21 11:54:21;;;;;;;14.13;9.75;;;;;;;;;;5071569;28;20402;-83
2021/07/21 11:56:47;;;;;;;11.55;9.40;;;;;;;;;;5069388;28;20059;-74
2021/07/21 11:59:14;;;;;;;11.32;8.75;;;;;;;;;;5061840;28;20025;-78
2021/07/21 12:01:40;;;;;;;12.20;8.65;;;;;;;;;;5068639;28;20035;-78
2021/07/21 12:04:06;;;;;;;11.00;9.02;;;;;;;;;;5064342;28;20017;-82
2021/07/21 12:06:32;;;;;;;13.57;9.60;;;;;;;;;;5064293;28;20020;-79
2021/07/21 12:08:58;;;;;;;14.10;9.70;;;;;;;;;;5066321;28;20496;-74
2021/07/21 12:11:27;;;;;;;11.57;9.00;;;;;;;;;;5070581;28;20474;-71
2021/07/21 12:14:03;;;;;;;13.50;9.55;;;;;;;;;;5068724;28;20032;-79
2021/07/21 12:16:41;;;;;;;11.23;9.10;;;;;;;;;;5060391;28;20090;-82
2021/07/21 12:19:33;;;;;;;13.38;9.43;;;;;;;;;;5065817;28;20020;-79
2021/07/21 12:22:32;;;;;;;14.45;9.65;;;;;;;;;;5025683;28;20034;-78
2021/07/21 12:25:10;;;;;;;14.10;9.68;;;;;;;;;;5011291;28;20026;-81
2021/07/21 12:27:36;;;;;;;13.00;9.83;;;;;;;;;;5018602;28;20068;-76
2021/07/21 12:30:07;;;;;;;13.75;8.82;;;;;;;;;;5018731;28;20038;-80
2021/07/21 12:32:37;;;;;;;12.32;9.80;;;;;;;;;;5026417;28;20053;-83
2021/07/21 12:35:04;;;;;;;13.15;9.73;;;;;;;;;;5009940;28;20066;-78
2021/07/21 12:37:35;;;;;;;13.10;9.55;;;;;;;;;;5023020;28;20116;-75
2021/07/21 12:40:02;;;;;;;15.43;9.93;;;;;;;;;;5028004;28;20048;-82
2021/07/21 12:42:29;;;;;;;12.20;9.38;;;;;;;;;;5029393;28;20038;-68
2021/07/21 12:45:01;;;;;;;14.18;9.60;;;;;;;;;;5026643;28;20466;-73
2021/07/21 12:47:30;;;;;;;12.65;9.85;;;;;;;;;;5031322;28;20077;-77
2021/07/21 12:50:18;;;;;;;13.45;10.15;;;;;;;;;;5029580;28;20040;-77
2021/07/21 12:52:50;;;;;;;15.95;9.63;;;;;;;;;;5027912;28;20032;-80
2021/07/21 12:55:19;;;;;;;13.18;9.50;;;;;;;;;;5006814;28;20034;-77
2021/07/21 12:57:45;;;;;;;15.77;10.25;;;;;;;;;;5029160;28;20029;-75
2021/07/21 13:00:13;;;;;;;15.23;9.68;;;;;;;;;;5026525;28;20038;-75
2021/07/21 13:02:40;;;;;;;15.50;9.57;;;;;;;;;;5017388;28;20036;-79
2021/07/21 13:05:26;;;;;;;13.48;9.63;;;;;;;;;;5018620;28;20037;-78
2021/07/21 13:07:53;;;;;;;16.15;9.00;;;;;;;;;;5026237;28;20105;-74
2021/07/21 13:10:20;;;;;;;13.80;9.80;;;;;;;;;;5018337;28;20048;-79
2021/07/21 13:12:46;;;;;;;14.05;9.80;;;;;;;;;;5026937;28;20115;-70
2021/07/21 13:15:12;;;;;;;12.18;9.60;;;;;;;;;;5029283;28;20033;-79
2021/07/21 13:17:38;;;;;;;15.77;9.27;;;;;;;;;;5029033;28;20045;-81
2021/07/21 13:20:08;;;;;;;14.20;9.75;;;;;;;;;;5067181;28;20496;-82
2021/07/21 13:22:35;;;;;;;13.63;9.60;;;;;;;;;;5069353;28;20037;-81
2021/07/21 13:25:14;;;;;;;20.65;9.95;;;;;;;;;;5069267;28;20032;-82
2021/07/21 13:27:40;;;;;;;11.15;9.73;;;;;;;;;;5052100;28;20584;-78
2021/07/21 13:30:22;;;;;;;12.30;9.38;;;;;;;;;;5063987;28;20072;-68
2021/07/21 13:32:48;;;;;;;11.52;8.70;;;;;;;;;;5070382;28;20615;-74
2021/07/21 13:35:15;;;;;;;11.02;9.05;;;;;;;;;;5068561;28;20090;-81
2021/07/21 13:37:41;;;;;;;12.98;9.50;;;;;;;;;;5067514;28;20032;-81
2021/07/21 13:40:09;;;;;;;15.70;9.48;;;;;;;;;;5070384;28;20393;-83
2021/07/21 13:42:38;;;;;;;12.80;9.80;;;;;;;;;;5050933;28;20025;-82
2021/07/21 13:45:08;;;;;;;13.77;9.52;;;;;;;;;;5064471;28;20046;-81
2021/07/21 13:47:37;;;;;;;13.77;9.25;;;;;;;;;;5066441;28;20068;-81
2021/07/21 13:50:07;;;;;;;14.43;9.38;;;;;;;;;;5066809;28;20095;-83
2021/07/21 13:52:34;;;;;;;13.77;9.60;;;;;;;;;;5068380;28;20021;-82
2021/07/21 13:55:00;;;;;;;10.68;8.85;;;;;;;;;;5066442;28;20158;-73
2021/07/21 13:57:29;;;;;;;13.40;9.95;;;;;;;;;;5068749;28;20394;-71
2021/07/21 13:59:55;;;;;;;12.55;9.05;;;;;;;;;;5066630;28;20080;-77
2021/07/21 14:02:22;;;;;;;16.13;10.30;;;;;;;;;;5067044;28;20082;-82
2021/07/21 14:04:48;;;;;;;12.50;9.40;;;;;;;;;;5071921;28;20024;-69
2021/07/21 14:07:14;;;;;;;17.45;9.52;;;;;;;;;;5072000;28;20436;-83
2021/07/21 14:09:42;;;;;;;13.43;9.77;;;;;;;;;;5072618;28;20024;-82
2021/07/21 14:12:08;;;;;;;12.43;9.23;;;;;;;;;;5067656;28;20473;-82
2021/07/21 14:14:34;;;;;;;15.68;9.52;;;;;;;;;;5065092;28;20024;-72
2021/07/21 14:17:00;;;;;;;11.52;9.32;;;;;;;;;;5070342;28;20036;-78
2021/07/21 14:19:30;;;;;;;13.77;9.63;;;;;;;;;;5071592;28;20032;-81
2021/07/21 14:21:56;;;;;;;14.40;9.35;;;;;;;;;;5067477;28;20021;-72
2021/07/21 14:24:23;;;;;;;13.50;9.38;;;;;;;;;;5069903;28;20108;-79
2021/07/21 14:26:49;;;;;;;14.77;9.57;;;;;;;;;;5065898;28;20024;-76
2021/07/21 14:29:15;;;;;;;13.93;9.23;;;;;;;;;;5069142;28;20028;-81
2021/07/21 14:31:42;;;;;;;14.90;9.93;;;;;;;;;;5072092;28;20643;-79
2021/07/21 14:34:13;;;;;;;13.57;9.73;;;;;;;;;;5058725;28;20032;-80
2021/07/21 14:36:41;;;;;;;12.43;9.68;;;;;;;;;;5067181;28;20045;-83
2021/07/21 14:39:07;;;;;;;13.45;8.98;;;;;;;;;;5065733;28;20025;-82
2021/07/21 14:41:34;;;;;;;11.27;8.50;;;;;;;;;;5063200;28;20047;-66
2021/07/21 14:44:00;;;;;;;12.23;8.55;;;;;;;;;;5071226;28;20116;-83
2021/07/21 14:46:28;;;;;;;12.18;8.48;;;;;;;;;;5070291;28;20052;-82